createdAt,value
2023-05-08T01:04:26.674Z,11.30
2023-05-08T01:06:31.636Z,11.00
2023-05-08T01:08:36.737Z,12.00
2023-05-08T01:10:48.384Z,10.80
2023-05-08T01:13:04.929Z,10.40
2023-05-08T01:15:16.316Z,11.80
2023-05-08T01:17:28.154Z,10.10
2023-05-08T01:20:05.996Z,10.80
2023-05-08T01:22:31.545Z,12.40
2023-05-08T01:24:56.401Z,11.70
2023-05-08T01:27:22.609Z,12.50
2023-05-08T01:29:59.742Z,12.70
2023-05-08T01:32:18.958Z,11.80
2023-05-08T01:34:27.108Z,12.40
2023-05-08T01:36:40.045Z,10.90
2023-05-08T01:38:53.992Z,11.40
2023-05-08T01:41:10.431Z,11.20
2023-05-08T01:43:25.333Z,11.60
2023-05-08T01:45:35.635Z,11.00
2023-05-08T01:47:41.504Z,11.70
2023-05-08T01:49:48.372Z,11.70
2023-05-08T01:51:59.236Z,14.30
2023-05-08T01:54:10.131Z,12.10
2023-05-08T01:56:20.474Z,12.70
2023-05-08T01:58:26.581Z,12.00
2023-05-08T02:00:31.939Z,12.70
2023-05-08T02:02:37.635Z,11.70
2023-05-08T02:04:44.268Z,12.20
2023-05-08T02:06:50.308Z,12.70
2023-05-08T02:08:57.569Z,12.10
2023-05-08T02:11:03.186Z,12.50
2023-05-08T02:13:08.865Z,12.70
2023-05-08T02:15:15.132Z,12.60
2023-05-08T02:17:21.078Z,12.50
2023-05-08T02:19:28.358Z,14.00
2023-05-08T02:21:33.994Z,13.30
2023-05-08T02:23:39.997Z,12.70
2023-05-08T02:25:46.643Z,11.40
2023-05-08T02:27:54.016Z,12.10
2023-05-08T02:30:00.006Z,11.50
2023-05-08T02:32:07.963Z,11.30
2023-05-08T02:34:13.249Z,11.90
2023-05-08T02:36:21.967Z,12.20
2023-05-08T02:38:27.161Z,11.80
2023-05-08T02:40:33.114Z,12.10
2023-05-08T02:42:38.834Z,11.80
2023-05-08T02:44:43.629Z,11.70
2023-05-08T02:46:55.531Z,12.50
2023-05-08T02:49:07.284Z,11.90
2023-05-08T02:51:22.372Z,11.80
2023-05-08T02:53:34.374Z,12.30
2023-05-08T02:55:44.298Z,11.80
2023-05-08T02:57:57.311Z,11.30
2023-05-08T03:00:06.011Z,12.10
2023-05-08T03:02:16.017Z,11.10
2023-05-08T03:04:28.952Z,12.40
2023-05-08T03:06:38.945Z,11.70
2023-05-08T03:08:46.373Z,10.90
2023-05-08T03:10:55.470Z,10.80
2023-05-08T03:13:03.696Z,10.30
2023-05-08T03:15:16.133Z,10.80
2023-05-08T03:17:26.414Z,11.60
2023-05-08T03:19:34.492Z,10.60
2023-05-08T03:21:44.091Z,10.50
2023-05-08T03:23:51.349Z,11.10
2023-05-08T03:25:58.705Z,11.30
2023-05-08T03:28:06.027Z,11.40
2023-05-08T03:30:13.393Z,11.50
2023-05-08T03:32:21.421Z,10.60
2023-05-08T03:34:28.767Z,11.00
2023-05-08T03:36:34.133Z,10.50
2023-05-08T03:38:39.357Z,10.40
2023-05-08T03:40:46.520Z,9.90
2023-05-08T03:42:52.375Z,11.10
2023-05-08T03:44:57.502Z,9.30
2023-05-08T03:47:04.525Z,9.20
2023-05-08T03:49:11.106Z,9.90
2023-05-08T03:51:17.247Z,10.10
2023-05-08T03:53:22.090Z,11.30
2023-05-08T03:55:27.611Z,9.70
2023-05-08T03:57:40.425Z,10.60
2023-05-08T03:59:51.308Z,11.90
2023-05-08T04:01:59.961Z,11.10
2023-05-08T04:04:11.936Z,11.20
2023-05-08T04:06:23.046Z,11.00
2023-05-08T04:08:31.578Z,10.60
2023-05-08T04:10:42.436Z,10.40
2023-05-08T04:12:55.232Z,10.50
2023-05-08T04:15:04.737Z,10.50
2023-05-08T04:17:14.413Z,11.90
2023-05-08T04:19:23.942Z,11.80
2023-05-08T04:21:34.113Z,11.40
2023-05-08T04:23:42.426Z,11.20
2023-05-08T04:25:48.528Z,11.80
2023-05-08T04:27:54.328Z,10.80
2023-05-08T04:29:59.918Z,11.40
2023-05-08T04:32:06.735Z,11.80
2023-05-08T04:34:12.271Z,11.20
2023-05-08T04:36:17.434Z,11.50
2023-05-08T04:38:22.580Z,12.00
2023-05-08T04:40:27.282Z,10.00
2023-05-08T04:42:32.484Z,10.90
2023-05-08T04:44:37.651Z,10.80
2023-05-08T04:46:42.570Z,10.90
2023-05-08T04:48:47.546Z,11.00
2023-05-08T04:50:52.224Z,10.00
2023-05-08T04:52:56.955Z,11.00
2023-05-08T04:55:02.153Z,10.60
2023-05-08T04:57:07.691Z,10.50
2023-05-08T04:59:13.625Z,10.60
2023-05-08T05:01:20.215Z,12.20
2023-05-08T05:03:25.112Z,10.70
2023-05-08T05:05:29.903Z,10.40
2023-05-08T05:07:34.628Z,10.80
2023-05-08T05:09:39.564Z,10.60
2023-05-08T05:11:44.330Z,10.60
2023-05-08T05:13:49.165Z,10.10
2023-05-08T05:15:54.063Z,11.90
2023-05-08T05:17:59.092Z,9.90
2023-05-08T05:20:04.445Z,10.40
2023-05-08T05:22:09.431Z,9.50
2023-05-08T05:24:14.382Z,10.00
2023-05-08T05:26:19.274Z,11.20
2023-05-08T05:28:24.019Z,10.40
2023-05-08T05:30:29.271Z,10.00
2023-05-08T05:32:34.091Z,8.60
2023-05-08T05:34:39.536Z,10.00
2023-05-08T05:36:44.674Z,9.70
2023-05-08T05:38:49.502Z,9.40
2023-05-08T05:40:54.200Z,8.60
2023-05-08T05:42:58.858Z,9.70
2023-05-08T05:45:03.830Z,9.80
2023-05-08T05:47:08.852Z,9.50
2023-05-08T05:49:13.771Z,9.20
2023-05-08T05:51:18.743Z,8.30
2023-05-08T05:53:23.396Z,9.70
2023-05-08T05:55:28.123Z,9.40
2023-05-08T05:57:32.927Z,8.60
2023-05-08T05:59:37.679Z,9.40
2023-05-08T06:01:42.446Z,8.80
2023-05-08T06:03:47.340Z,8.70
2023-05-08T06:05:52.091Z,9.20
2023-05-08T06:07:57.422Z,9.60
2023-05-08T06:10:02.145Z,8.30
2023-05-08T06:12:07.322Z,7.30
2023-05-08T06:14:12.263Z,9.40
2023-05-08T06:16:17.343Z,9.40
2023-05-08T06:18:22.895Z,8.40
2023-05-08T06:20:27.660Z,9.70
2023-05-08T06:22:32.382Z,8.20
2023-05-08T06:24:37.120Z,7.90
2023-05-08T06:26:41.887Z,10.00
2023-05-08T06:28:46.574Z,8.00
2023-05-08T06:30:51.561Z,9.10
2023-05-08T06:32:56.301Z,9.10
2023-05-08T06:35:01.041Z,10.10
2023-05-08T06:37:05.819Z,8.40
2023-05-08T06:39:10.455Z,9.70
2023-05-08T06:41:15.522Z,9.10
2023-05-08T06:43:20.269Z,8.10
2023-05-08T06:45:25.046Z,7.50
2023-05-08T06:47:29.868Z,9.20
2023-05-08T06:49:35.279Z,7.90
2023-05-08T06:51:40.025Z,8.40
2023-05-08T06:53:44.747Z,8.40
2023-05-08T06:55:49.466Z,10.60
2023-05-08T06:57:54.309Z,7.40
2023-05-08T06:59:59.185Z,8.00
2023-05-08T07:02:04.038Z,9.00
2023-05-08T07:04:08.887Z,9.00
2023-05-08T07:06:13.854Z,9.70
2023-05-08T07:08:18.695Z,8.00
2023-05-08T07:10:23.660Z,10.10
2023-05-08T07:12:28.565Z,8.30
2023-05-08T07:14:33.373Z,8.30
2023-05-08T07:16:38.238Z,7.50
2023-05-08T07:18:43.834Z,8.60
2023-05-08T07:20:48.792Z,8.50
2023-05-08T07:22:53.485Z,8.10
2023-05-08T07:24:58.270Z,9.20
2023-05-08T07:27:02.980Z,9.10
2023-05-08T07:29:07.847Z,8.30
2023-05-08T07:31:12.829Z,9.50
2023-05-08T07:33:18.028Z,7.60
2023-05-08T07:35:23.069Z,8.80
2023-05-08T07:37:27.838Z,8.40
2023-05-08T07:39:32.541Z,8.10
2023-05-08T07:41:37.412Z,9.20
2023-05-08T07:43:44.907Z,8.50
2023-05-08T07:45:49.824Z,8.60
2023-05-08T07:47:56.069Z,9.10
2023-05-08T07:50:00.955Z,8.30
2023-05-08T07:52:08.970Z,8.10
2023-05-08T07:54:13.871Z,8.50
2023-05-08T07:56:18.617Z,8.80
2023-05-08T07:58:23.994Z,7.80
2023-05-08T08:00:28.724Z,7.80
2023-05-08T08:02:33.490Z,9.30
2023-05-08T08:04:38.275Z,8.80
2023-05-08T08:06:42.979Z,8.90
2023-05-08T08:08:47.726Z,7.50
2023-05-08T08:10:52.783Z,9.00
2023-05-08T08:12:57.575Z,9.00
2023-05-08T08:15:02.273Z,8.60
2023-05-08T08:17:07.128Z,8.00
2023-05-08T08:19:11.865Z,8.10
2023-05-08T08:21:16.605Z,8.60
2023-05-08T08:23:21.480Z,8.90
2023-05-08T08:25:26.402Z,8.30
2023-05-08T08:27:31.291Z,8.80
2023-05-08T08:29:36.077Z,8.20
2023-05-08T08:31:40.959Z,8.30
2023-05-08T08:33:45.777Z,8.50
2023-05-08T08:35:50.537Z,8.40
2023-05-08T08:37:55.142Z,9.40
2023-05-08T08:39:59.972Z,8.90
2023-05-08T08:42:05.705Z,8.40
2023-05-08T08:44:10.880Z,11.40
2023-05-08T08:46:19.120Z,9.10
2023-05-08T08:48:28.785Z,9.00
2023-05-08T08:50:35.756Z,8.60
2023-05-08T08:52:46.652Z,7.80
2023-05-08T08:54:52.808Z,8.10
2023-05-08T08:57:00.706Z,8.40
2023-05-08T08:59:07.482Z,7.90
2023-05-08T09:01:17.906Z,8.00
2023-05-08T09:03:22.879Z,8.30
2023-05-08T09:05:28.004Z,7.80
2023-05-08T09:07:33.361Z,7.50
2023-05-08T09:09:40.939Z,8.00
2023-05-08T09:11:47.743Z,8.10
2023-05-08T09:13:52.737Z,7.60
2023-05-08T09:15:59.532Z,8.30
2023-05-08T09:18:04.991Z,8.40
2023-05-08T09:20:14.238Z,7.40
2023-05-08T09:22:19.970Z,7.80
2023-05-08T09:24:24.791Z,7.90
2023-05-08T09:26:35.240Z,8.20
2023-05-08T09:28:39.923Z,9.00
2023-05-08T09:30:52.855Z,8.40
2023-05-08T09:33:03.331Z,7.70
2023-05-08T09:35:10.477Z,7.10
2023-05-08T09:37:15.550Z,7.70
2023-05-08T09:39:25.711Z,9.10
2023-05-08T09:41:30.991Z,8.60
2023-05-08T09:43:38.177Z,7.60
2023-05-08T09:45:42.996Z,8.30
2023-05-08T09:47:50.914Z,7.80
2023-05-08T09:50:03.169Z,9.70
2023-05-08T09:52:08.454Z,8.70
2023-05-08T09:54:20.449Z,9.50
2023-05-08T09:56:38.706Z,8.00
2023-05-08T09:58:45.004Z,8.00
2023-05-08T10:00:49.970Z,8.20
2023-05-08T10:02:59.896Z,7.70
2023-05-08T10:05:05.356Z,8.80
2023-05-08T10:07:10.347Z,7.80
2023-05-08T10:09:16.092Z,9.80
2023-05-08T10:11:21.570Z,8.80
2023-05-08T10:13:26.353Z,9.10
2023-05-08T10:15:32.872Z,8.30
2023-05-08T10:17:44.118Z,7.80
2023-05-08T10:19:55.110Z,8.10
2023-05-08T10:22:04.099Z,7.90
2023-05-08T10:24:15.574Z,7.80
2023-05-08T10:26:25.739Z,9.10
2023-05-08T10:28:37.116Z,7.50
2023-05-08T10:30:47.921Z,9.40
2023-05-08T10:32:53.620Z,8.60
2023-05-08T10:35:03.344Z,7.40
2023-05-08T10:37:10.671Z,7.40
2023-05-08T10:39:15.506Z,8.50
2023-05-08T10:41:21.034Z,7.90
2023-05-08T10:43:26.348Z,8.00
2023-05-08T10:45:31.808Z,7.40
2023-05-08T10:47:51.343Z,8.80
2023-05-08T10:50:04.195Z,9.70
2023-05-08T10:52:20.268Z,8.70
2023-05-08T10:54:47.081Z,9.10
2023-05-08T10:56:52.255Z,8.30
2023-05-08T10:58:59.541Z,8.10
2023-05-08T11:01:18.384Z,8.30
2023-05-08T11:03:32.277Z,9.30
2023-05-08T11:05:49.348Z,9.70
2023-05-08T11:07:59.077Z,8.70
2023-05-08T11:10:15.820Z,10.20
2023-05-08T11:12:26.493Z,7.90
2023-05-08T11:14:32.266Z,8.00
2023-05-08T11:17:08.932Z,7.50
2023-05-08T11:19:20.984Z,7.50
2023-05-08T11:21:25.915Z,8.30
2023-05-08T11:23:31.698Z,8.40
2023-05-08T11:25:44.781Z,7.40
2023-05-08T11:28:10.267Z,7.40
2023-05-08T11:30:37.688Z,8.40
2023-05-08T11:33:14.073Z,8.10
2023-05-08T11:35:42.426Z,7.20
2023-05-08T11:38:14.417Z,11.30
2023-05-08T11:40:52.956Z,7.60
2023-05-08T11:43:00.026Z,8.30
2023-05-08T11:45:08.055Z,7.20
2023-05-08T11:47:18.698Z,8.40
2023-05-08T11:49:29.046Z,8.20
2023-05-08T11:51:36.082Z,8.00
2023-05-08T11:53:41.142Z,7.70
2023-05-08T11:55:49.444Z,7.60
2023-05-08T11:57:57.750Z,8.30
2023-05-08T12:00:07.984Z,7.80
2023-05-08T12:02:15.835Z,7.40
2023-05-08T12:04:20.922Z,7.40
2023-05-08T12:06:26.116Z,8.50
2023-05-08T12:08:30.875Z,9.00
2023-05-08T12:10:41.523Z,8.20
2023-05-08T12:12:46.787Z,7.60
2023-05-08T12:14:52.712Z,8.30
2023-05-08T12:16:57.695Z,7.30
2023-05-08T12:19:02.574Z,7.10
2023-05-08T12:21:07.721Z,7.60
2023-05-08T12:23:12.659Z,8.10
2023-05-08T12:25:18.524Z,7.30
2023-05-08T12:27:24.718Z,8.10
2023-05-08T12:29:29.465Z,8.30
2023-05-08T12:31:35.437Z,8.10
2023-05-08T12:33:40.432Z,7.80
2023-05-08T12:35:45.647Z,7.60
2023-05-08T12:37:52.221Z,7.50
2023-05-08T12:39:57.577Z,7.00
2023-05-08T12:42:05.524Z,8.30
2023-05-08T12:44:22.710Z,8.50
2023-05-08T12:46:27.468Z,7.30
2023-05-08T12:48:32.335Z,8.20
2023-05-08T12:50:38.303Z,7.20
2023-05-08T12:52:43.586Z,8.60
2023-05-08T12:54:50.341Z,6.10
2023-05-08T12:56:56.882Z,7.80
2023-05-08T12:59:02.152Z,7.70
2023-05-08T13:01:09.820Z,7.00
2023-05-08T13:03:21.735Z,7.40
2023-05-08T13:05:26.704Z,7.60
2023-05-08T13:07:34.705Z,7.30
2023-05-08T13:09:40.434Z,7.10
2023-05-08T13:11:45.121Z,7.60
2023-05-08T13:13:50.087Z,6.70
2023-05-08T13:15:56.114Z,8.60
2023-05-08T13:18:01.233Z,7.50
2023-05-08T13:20:07.653Z,6.90
2023-05-08T13:22:12.322Z,7.10
2023-05-08T13:24:17.159Z,8.60
2023-05-08T13:26:22.784Z,7.80
2023-05-08T13:28:27.520Z,7.30
2023-05-08T13:30:32.418Z,7.30
2023-05-08T13:32:37.237Z,6.90
2023-05-08T13:34:49.631Z,7.00
2023-05-08T13:36:56.360Z,6.70
2023-05-08T13:39:04.214Z,7.80
2023-05-08T13:41:08.994Z,7.30
2023-05-08T13:43:13.709Z,7.60
2023-05-08T13:45:18.652Z,7.40
2023-05-08T13:47:23.546Z,6.20
2023-05-08T13:49:28.381Z,6.90
2023-05-08T13:51:33.078Z,8.10
2023-05-08T13:53:37.849Z,7.20
2023-05-08T13:55:42.660Z,6.50
2023-05-08T13:57:47.385Z,6.40
2023-05-08T13:59:52.591Z,7.00
2023-05-08T14:01:57.535Z,9.30
2023-05-08T14:04:02.466Z,7.60
2023-05-08T14:06:08.167Z,7.80
2023-05-08T14:08:12.940Z,6.80
2023-05-08T14:10:18.049Z,7.00
2023-05-08T14:12:22.849Z,6.20
2023-05-08T14:14:27.697Z,8.00
2023-05-08T14:16:32.576Z,6.40
2023-05-08T14:18:38.327Z,6.70
2023-05-08T14:20:46.898Z,6.00
2023-05-08T14:22:54.053Z,8.60
2023-05-08T14:24:58.877Z,7.70
2023-05-08T14:27:03.842Z,7.40
2023-05-08T14:29:08.893Z,6.50
2023-05-08T14:31:13.968Z,5.90
2023-05-08T14:33:19.584Z,7.20
2023-05-08T14:35:24.428Z,6.40
2023-05-08T14:37:29.120Z,6.40
2023-05-08T14:39:33.926Z,7.50
2023-05-08T14:41:38.918Z,7.40
2023-05-08T14:43:43.698Z,7.30
2023-05-08T14:45:48.541Z,8.50
2023-05-08T14:47:53.329Z,7.20
2023-05-08T14:49:58.281Z,7.00
2023-05-08T14:52:02.920Z,7.30
2023-05-08T14:54:07.971Z,6.30
2023-05-08T14:56:15.406Z,6.10
2023-05-08T14:58:20.244Z,6.30
2023-05-08T15:00:25.102Z,6.20
2023-05-08T15:02:30.038Z,6.70
2023-05-08T15:04:34.811Z,6.50
2023-05-08T15:06:39.460Z,6.30
2023-05-08T15:08:44.395Z,6.80
2023-05-08T15:10:49.148Z,6.60
2023-05-08T15:12:53.950Z,6.40
2023-05-08T15:15:00.128Z,6.10
2023-05-08T15:17:06.187Z,6.00
2023-05-08T15:19:10.905Z,6.10
2023-05-08T15:21:15.661Z,7.20
2023-05-08T15:23:20.408Z,7.00
2023-05-08T15:25:25.178Z,7.10
2023-05-08T15:27:30.092Z,7.60
2023-05-08T15:29:34.806Z,6.90
2023-05-08T15:31:39.458Z,5.90
2023-05-08T15:33:44.193Z,6.90
2023-05-08T15:35:48.919Z,10.50
2023-05-08T15:37:53.670Z,6.70
2023-05-08T15:39:58.357Z,7.10
2023-05-08T15:42:03.019Z,6.50
2023-05-08T15:44:07.981Z,5.90
2023-05-08T15:46:12.667Z,5.80
2023-05-08T15:48:17.382Z,6.60
2023-05-08T15:50:22.228Z,7.00
2023-05-08T15:52:26.938Z,6.40
2023-05-08T15:54:31.614Z,5.90
2023-05-08T15:56:37.881Z,6.70
2023-05-08T15:58:42.639Z,6.80
2023-05-08T16:00:47.372Z,5.80
2023-05-08T16:02:52.202Z,6.20
2023-05-08T16:04:57.062Z,5.30
2023-05-08T16:07:01.833Z,5.60
2023-05-08T16:09:06.721Z,6.70
2023-05-08T16:11:11.433Z,8.10
2023-05-08T16:13:16.447Z,5.80
2023-05-08T16:15:21.393Z,7.40
2023-05-08T16:17:26.287Z,6.40
2023-05-08T16:19:30.887Z,6.60
2023-05-08T16:21:35.481Z,6.30
2023-05-08T16:23:40.263Z,6.50
2023-05-08T16:25:45.030Z,7.10
2023-05-08T16:27:49.808Z,6.90
2023-05-08T16:29:54.879Z,7.20
2023-05-08T16:31:59.525Z,6.10
2023-05-08T16:34:04.701Z,6.40
2023-05-08T16:36:09.881Z,5.60
2023-05-08T16:38:14.568Z,6.00
2023-05-08T16:40:19.599Z,6.80
2023-05-08T16:42:24.337Z,5.90
2023-05-08T16:44:29.015Z,7.60
2023-05-08T16:46:34.039Z,6.50
2023-05-08T16:48:38.798Z,7.00
2023-05-08T16:50:43.875Z,5.90
2023-05-08T16:52:48.646Z,6.00
2023-05-08T16:54:53.422Z,6.80
2023-05-08T16:56:58.019Z,7.00
2023-05-08T16:59:02.716Z,6.40
2023-05-08T17:01:07.548Z,7.70
2023-05-08T17:03:12.324Z,6.20
2023-05-08T17:05:17.169Z,6.80
2023-05-08T17:07:21.866Z,6.70
2023-05-08T17:09:26.707Z,5.80
2023-05-08T17:11:31.378Z,5.90
2023-05-08T17:13:36.082Z,6.80
2023-05-08T17:15:40.857Z,5.30
2023-05-08T17:17:45.722Z,7.30
2023-05-08T17:19:50.385Z,6.80
2023-05-08T17:21:55.701Z,6.70
2023-05-08T17:24:02.159Z,6.50
2023-05-08T17:26:06.965Z,6.10
2023-05-08T17:28:11.913Z,6.80
2023-05-08T17:30:17.418Z,7.10
2023-05-08T17:32:22.171Z,6.80
2023-05-08T17:34:26.970Z,6.10
2023-05-08T17:36:31.759Z,7.40
2023-05-08T17:38:36.689Z,6.90
2023-05-08T17:40:41.287Z,6.10
2023-05-08T17:42:45.936Z,6.90
2023-05-08T17:44:50.752Z,6.60
2023-05-08T17:46:55.621Z,7.20
2023-05-08T17:49:00.317Z,9.30
2023-05-08T17:51:05.393Z,6.90
2023-05-08T17:53:10.292Z,7.20
2023-05-08T17:55:15.011Z,8.10
2023-05-08T17:57:19.773Z,7.80
2023-05-08T17:59:24.504Z,7.20
2023-05-08T18:01:29.773Z,7.00
2023-05-08T18:03:34.688Z,7.10
2023-05-08T18:05:40.376Z,11.00
2023-05-08T18:07:45.206Z,8.00
2023-05-08T18:09:49.869Z,8.70
2023-05-08T18:11:54.556Z,7.30
2023-05-08T18:13:59.278Z,7.80
2023-05-08T18:16:04.311Z,6.50
2023-05-08T18:18:09.318Z,7.20
2023-05-08T18:20:14.530Z,6.90
2023-05-08T18:22:19.598Z,8.60
2023-05-08T18:24:24.219Z,8.60
2023-05-08T18:26:29.573Z,7.00
2023-05-08T18:28:34.714Z,7.40
2023-05-08T18:30:40.263Z,7.60
2023-05-08T18:32:45.076Z,6.90
2023-05-08T18:34:49.891Z,7.50
2023-05-08T18:36:56.120Z,7.70
2023-05-08T18:39:02.972Z,6.00
2023-05-08T18:41:07.904Z,7.20
2023-05-08T18:43:12.666Z,7.30
2023-05-08T18:45:17.713Z,8.10
2023-05-08T18:47:23.020Z,7.90
2023-05-08T18:49:28.297Z,7.40
2023-05-08T18:51:33.562Z,6.20
2023-05-08T18:53:38.876Z,9.40
2023-05-08T18:55:43.655Z,8.30
2023-05-08T18:57:48.494Z,7.20
2023-05-08T18:59:53.661Z,8.70
2023-05-08T19:01:58.966Z,7.10
2023-05-08T19:04:04.268Z,7.80
2023-05-08T19:06:09.463Z,6.90
2023-05-08T19:08:14.220Z,7.40
2023-05-08T19:10:19.020Z,9.30
2023-05-08T19:12:23.981Z,9.20
2023-05-08T19:14:28.663Z,7.80
2023-05-08T19:16:33.538Z,6.80
2023-05-08T19:18:38.311Z,6.90
2023-05-08T19:20:43.195Z,8.20
2023-05-08T19:22:48.196Z,7.60
2023-05-08T19:24:55.909Z,7.80
2023-05-08T19:27:00.946Z,10.40
2023-05-08T19:29:05.655Z,7.40
2023-05-08T19:31:10.678Z,8.70
2023-05-08T19:33:15.930Z,7.70
2023-05-08T19:35:20.829Z,8.00
2023-05-08T19:37:25.834Z,7.70
2023-05-08T19:39:30.588Z,8.10
2023-05-08T19:41:35.459Z,6.40
2023-05-08T19:43:40.194Z,8.80
2023-05-08T19:45:45.566Z,7.80
2023-05-08T19:47:50.397Z,8.40
2023-05-08T19:49:55.336Z,9.60
2023-05-08T19:52:00.134Z,8.90
2023-05-08T19:54:07.610Z,8.40
2023-05-08T19:56:13.664Z,7.60
2023-05-08T19:58:18.454Z,7.80
2023-05-08T20:00:23.281Z,10.70
2023-05-08T20:02:28.090Z,9.10
2023-05-08T20:04:40.005Z,8.10
2023-05-08T20:06:56.947Z,7.80
2023-05-08T20:09:01.755Z,7.40
2023-05-08T20:11:06.458Z,7.70
2023-05-08T20:13:11.184Z,7.30
2023-05-08T20:15:16.127Z,8.30
2023-05-08T20:17:20.870Z,9.30
2023-05-08T20:19:28.599Z,7.90
2023-05-08T20:21:33.198Z,7.50
2023-05-08T20:23:37.895Z,8.00
2023-05-08T20:25:42.944Z,7.40
2023-05-08T20:27:47.683Z,8.30
2023-05-08T20:29:52.326Z,8.80
2023-05-08T20:31:56.994Z,7.30
2023-05-08T20:34:01.696Z,8.10
2023-05-08T20:36:06.749Z,9.30
2023-05-08T20:38:11.442Z,8.20
2023-05-08T20:40:16.530Z,9.10
2023-05-08T20:42:21.463Z,8.60
2023-05-08T20:44:26.227Z,8.90
2023-05-08T20:46:31.012Z,8.60
2023-05-08T20:48:35.660Z,8.40
2023-05-08T20:50:40.572Z,8.00
2023-05-08T20:52:45.199Z,9.70
2023-05-08T20:54:49.849Z,8.50
2023-05-08T20:56:54.509Z,8.90
2023-05-08T20:58:59.094Z,8.90
2023-05-08T21:01:03.857Z,9.10
2023-05-08T21:03:08.592Z,8.20
2023-05-08T21:05:13.728Z,8.40
2023-05-08T21:07:20.016Z,8.10
2023-05-08T21:09:24.916Z,8.80
2023-05-08T21:11:29.706Z,10.60
2023-05-08T21:13:34.378Z,9.60
2023-05-08T21:15:39.018Z,8.80
2023-05-08T21:17:43.841Z,8.80
2023-05-08T21:19:48.653Z,8.30
2023-05-08T21:21:53.343Z,8.70
2023-05-08T21:23:58.346Z,10.10
2023-05-08T21:26:03.175Z,7.90
2023-05-08T21:28:08.012Z,8.40
2023-05-08T21:30:13.952Z,8.10
2023-05-08T21:32:18.740Z,8.70
2023-05-08T21:34:23.404Z,7.60
2023-05-08T21:36:28.212Z,7.80
2023-05-08T21:38:33.113Z,8.80
2023-05-08T21:40:37.778Z,8.40
2023-05-08T21:42:42.443Z,8.20
2023-05-08T21:44:47.287Z,7.40
2023-05-08T21:46:52.183Z,8.90
2023-05-08T21:48:56.941Z,8.20
2023-05-08T21:51:01.941Z,8.70
2023-05-08T21:53:06.696Z,7.70
2023-05-08T21:55:12.088Z,9.60
2023-05-08T21:57:16.803Z,10.50
2023-05-08T21:59:21.516Z,7.80
2023-05-08T22:01:26.398Z,7.70
2023-05-08T22:03:31.196Z,10.40
2023-05-08T22:05:35.819Z,9.20
2023-05-08T22:07:40.980Z,7.80
2023-05-08T22:09:45.650Z,8.80
2023-05-08T22:11:50.517Z,7.40
2023-05-08T22:13:55.205Z,8.30
2023-05-08T22:15:59.955Z,8.50
2023-05-08T22:18:04.902Z,8.30
2023-05-08T22:20:11.986Z,9.80
2023-05-08T22:22:16.771Z,9.10
2023-05-08T22:24:22.418Z,7.60
2023-05-08T22:26:27.245Z,8.10
2023-05-08T22:28:32.012Z,8.60
2023-05-08T22:30:36.778Z,7.90
2023-05-08T22:32:41.557Z,9.60
2023-05-08T22:34:46.305Z,8.20
2023-05-08T22:36:50.973Z,7.30
2023-05-08T22:38:55.716Z,8.40
2023-05-08T22:41:00.755Z,7.00
2023-05-08T22:43:05.464Z,8.50
2023-05-08T22:45:12.606Z,7.50
2023-05-08T22:47:18.157Z,7.40
2023-05-08T22:49:22.928Z,8.40
2023-05-08T22:51:27.799Z,8.00
2023-05-08T22:53:32.459Z,8.30
2023-05-08T22:55:37.191Z,7.80
2023-05-08T22:57:41.967Z,7.80
2023-05-08T22:59:46.748Z,7.70
2023-05-08T23:01:51.523Z,8.90
2023-05-08T23:03:56.331Z,7.90
2023-05-08T23:06:01.043Z,8.90
2023-05-08T23:08:06.261Z,7.50
2023-05-08T23:10:12.128Z,8.30
2023-05-08T23:12:16.973Z,7.60
2023-05-08T23:14:21.690Z,9.20
2023-05-08T23:16:26.456Z,8.60
2023-05-08T23:18:31.161Z,8.90
2023-05-08T23:20:35.879Z,8.20
2023-05-08T23:22:43.559Z,9.20
2023-05-08T23:24:49.740Z,8.90
2023-05-08T23:26:54.521Z,8.30
2023-05-08T23:28:59.211Z,10.80
2023-05-08T23:31:04.367Z,7.90
2023-05-08T23:33:09.087Z,8.50
2023-05-08T23:35:14.069Z,10.20
2023-05-08T23:37:19.002Z,7.30
2023-05-08T23:39:23.850Z,8.00
2023-05-08T23:41:28.480Z,8.50
2023-05-08T23:43:33.309Z,9.60
2023-05-08T23:45:37.928Z,7.80
2023-05-08T23:47:42.722Z,9.50
2023-05-08T23:49:47.397Z,8.00
2023-05-08T23:51:52.109Z,7.50
2023-05-08T23:53:56.819Z,8.40
2023-05-08T23:56:01.601Z,7.80
2023-05-08T23:58:06.359Z,8.70
